Main page
METAR-TAF:

METAR-TAF

Airports :

Yacuiba Airport

Yacuíba, Bolivia

latitude: 21-57S, longitude: 063-39W, elevation: 645 m

Current weather observation

The report was made 15 hours and 48 minutes ago, at 19:00 UTC
Calm wind
Temperature 25°C
Humidity 50%
Pressure 1020 hPa
Visibility 10 km or more

METAR: SLYA 111900Z 00000KT 9999 NSC 25/14 Q1020

Time: 06:48 (10:48 UTC)

Forecast

The report was made 23 hours and 58 minutes ago, at 10:50 UTC
Forecast valid from 11 at 12 UTC to 12 at 12 UTC
Wind kt from the North
Visibility 10 km or more
Few clouds at a height of 2000 ft
Becoming
from 11 at 15 UTC to 11 at 17 UTC
Wind 10 kt from the East/Northeast
Becoming
from 11 at 20 UTC to 11 at 22 UTC
Wind kt from the North

TAF: SLYA 111050Z 1112/1212 00000KT 9999 FEW020 TX23/1119Z TN07/1211Z BECMG 1115/1117 06010KT BECMG 1120/1122 00000KT

Weather observations and forecasts of more than 4000 airports (METAR and TAF reports).

The available stations are represented by yellow and red dots on the map.

Hover mouse over dot to see the name of the station.

Then click to see weather observations and forecasts.

To change the map : click on the green buttons with a black cross to zoom in, on the green button with a dash to zoom out, or on the green arrows for adjacent maps.


METAR-TAF: